Time;durP1;ratioP1;P1;durP2;ratioP2;P2;SDS_P1;SDS_P2;PMS_P1;PMS_P2;Temp;Humidity;BMP_temperature;BMP_pressure;BME280_temperature;BME280_humidity;BME280_pressure;Samples;Min_cycle;Max_cycle;Signal;HPM_P1;HPM_P2
2021/12/02 00:00:51;;;;;;;6.50;2.00;;;;;;;2.07;95.37;94676.94;5001920;28;20104;-71
2021/12/02 00:03:17;;;;;;;8.27;2.63;;;;;;;2.03;95.51;94682.94;5000623;28;20030;-70
2021/12/02 00:05:42;;;;;;;6.50;2.33;;;;;;;2.02;95.86;94684.75;5000339;28;20051;-70
2021/12/02 00:08:08;;;;;;;5.20;2.17;;;;;;;1.91;95.90;94680.34;4999824;28;20046;-72
2021/12/02 00:10:35;;;;;;;9.35;3.08;;;;;;;1.90;96.26;94684.03;5000423;28;20030;-72
2021/12/02 00:13:01;;;;;;;3.97;1.63;;;;;;;1.96;96.01;94680.44;4999522;28;20042;-74
2021/12/02 00:15:52;;;;;;;6.45;2.50;;;;;;;1.99;95.78;94687.06;5001903;28;20063;-70
2021/12/02 00:21:05;;;;;;;7.65;2.15;;;;;;;2.09;95.45;94685.41;5000361;28;20514;-72
2021/12/02 00:23:50;;;;;;;4.18;1.80;;;;;;;2.09;95.08;94684.59;5000757;28;20030;-71
2021/12/02 00:26:17;;;;;;;5.13;2.10;;;;;;;2.06;94.80;94685.09;4998375;28;20051;-72
2021/12/02 00:28:43;;;;;;;5.93;1.92;;;;;;;2.05;94.52;94679.00;5000472;28;20030;-74
2021/12/02 00:31:17;;;;;;;7.18;2.80;;;;;;;2.03;94.52;94672.38;4999336;28;20058;-73
2021/12/02 00:33:45;;;;;;;6.25;2.47;;;;;;;2.06;94.27;94680.59;5001572;28;20104;-70
2021/12/02 00:36:15;;;;;;;2.53;1.60;;;;;;;2.06;94.12;94683.25;5002881;28;20563;-71
2021/12/02 00:38:42;;;;;;;7.30;2.03;;;;;;;2.10;94.11;94687.03;5003088;28;20123;-70
2021/12/02 00:41:11;;;;;;;10.98;2.70;;;;;;;2.10;94.38;94680.91;5002261;28;20133;-70
2021/12/02 00:43:38;;;;;;;14.50;2.17;;;;;;;2.14;94.43;94682.84;5003512;28;20030;-72
2021/12/02 00:46:08;;;;;;;10.68;2.83;;;;;;;2.14;94.83;94687.34;5003094;28;20088;-71
2021/12/02 00:48:35;;;;;;;5.22;1.92;;;;;;;2.13;94.73;94681.25;5004061;28;20432;-71
2021/12/02 00:51:01;;;;;;;9.65;3.22;;;;;;;2.11;94.94;94675.44;5002631;28;20037;-72
2021/12/02 00:53:28;;;;;;;6.32;2.30;;;;;;;2.12;94.98;94678.88;5001444;28;20077;-72
2021/12/02 00:55:54;;;;;;;5.28;1.90;;;;;;;2.13;95.00;94675.19;4999269;28;20048;-73
2021/12/02 00:58:23;;;;;;;9.77;2.03;;;;;;;2.11;95.27;94677.28;5000274;28;20053;-71
2021/12/02 01:00:51;;;;;;;11.38;2.65;;;;;;;2.11;95.01;94680.69;5000168;28;20518;-70
2021/12/02 01:03:18;;;;;;;18.00;3.17;;;;;;;2.09;95.02;94681.97;5002352;28;20038;-70
2021/12/02 01:05:44;;;;;;;6.47;2.00;;;;;;;2.10;94.67;94683.56;5000518;28;20041;-74
2021/12/02 01:08:11;;;;;;;3.53;1.73;;;;;;;2.11;94.53;94687.81;5000451;28;20061;-71
2021/12/02 01:10:36;;;;;;;5.68;2.45;;;;;;;2.12;94.71;94684.16;5002040;28;20045;-72
2021/12/02 01:13:02;;;;;;;9.80;2.42;;;;;;;2.11;94.83;94690.47;4998654;28;20424;-70
2021/12/02 01:15:29;;;;;;;5.43;2.47;;;;;;;2.07;95.03;94695.41;5004247;28;20030;-70
2021/12/02 01:17:54;;;;;;;2.17;0.85;;;;;;;1.99;94.35;94700.25;4997232;28;20052;-71
2021/12/02 01:20:20;;;;;;;7.15;1.35;;;;;;;1.93;94.56;94697.53;5002336;28;20109;-71
2021/12/02 01:22:48;;;;;;;5.35;2.08;;;;;;;1.88;94.28;94707.22;4998756;28;20042;-72
2021/12/02 01:25:17;;;;;;;4.28;1.83;;;;;;;1.80;94.51;94705.75;4996705;28;20056;-70
2021/12/02 01:27:46;;;;;;;8.82;2.22;;;;;;;1.82;93.97;94706.31;5000546;28;20048;-74
2021/12/02 01:30:12;;;;;;;7.20;1.83;;;;;;;1.83;93.76;94707.91;4998779;28;20042;-70
2021/12/02 01:32:39;;;;;;;8.07;2.30;;;;;;;1.85;93.83;94711.09;4996655;28;20065;-72
2021/12/02 01:35:05;;;;;;;4.82;2.05;;;;;;;1.84;94.12;94706.06;4991470;28;20060;-71
2021/12/02 01:37:31;;;;;;;5.38;1.75;;;;;;;1.83;93.68;94701.84;4999789;28;20177;-70
2021/12/02 01:39:58;;;;;;;8.10;2.38;;;;;;;1.82;93.50;94721.34;4999251;28;20036;-72
2021/12/02 01:42:26;;;;;;;7.57;2.50;;;;;;;1.80;93.46;94707.59;4998824;28;20456;-70
2021/12/02 01:44:57;;;;;;;7.57;2.28;;;;;;;1.77;93.68;94711.47;4999353;28;20041;-72
2021/12/02 01:47:28;;;;;;;4.07;1.73;;;;;;;1.71;93.93;94709.78;5014964;28;20468;-72
2021/12/02 01:50:01;;;;;;;11.60;2.35;;;;;;;1.73;93.91;94710.38;4996401;28;20049;-71
2021/12/02 01:52:31;;;;;;;7.40;2.45;;;;;;;1.69;94.00;94714.50;5001210;28;20100;-72
2021/12/02 01:55:17;;;;;;;4.97;2.15;;;;;;;1.72;93.69;94721.16;4995881;28;20043;-70
2021/12/02 01:58:00;;;;;;;10.90;2.65;;;;;;;1.64;93.63;94709.16;5000594;28;20040;-72
2021/12/02 02:00:43;;;;;;;8.48;2.75;;;;;;;1.58;94.24;94710.06;4998016;28;20037;-73
2021/12/02 02:03:11;;;;;;;11.95;3.28;;;;;;;1.59;94.56;94723.03;5002648;28;20068;-71
2021/12/02 02:05:37;;;;;;;6.40;2.40;;;;;;;1.60;94.23;94714.06;4998296;28;20037;-72
2021/12/02 02:08:04;;;;;;;6.85;2.63;;;;;;;1.64;94.10;94723.13;4997915;28;20068;-71
2021/12/02 02:10:34;;;;;;;9.40;2.53;;;;;;;1.69;93.46;94719.78;4998777;28;20181;-71
2021/12/02 02:13:03;;;;;;;11.70;2.28;;;;;;;1.71;93.61;94715.06;4997880;28;20231;-71
2021/12/02 02:15:29;;;;;;;9.30;2.83;;;;;;;1.75;93.13;94721.47;4999959;28;20335;-71
2021/12/02 02:18:04;;;;;;;7.13;1.70;;;;;;;1.74;93.27;94714.59;5002228;28;20122;-70
2021/12/02 02:21:00;;;;;;;9.57;2.60;;;;;;;1.81;93.33;94725.81;5000044;28;20568;-71
2021/12/02 02:23:29;;;;;;;15.73;3.17;;;;;;;1.86;93.29;94728.53;5000316;28;20952;-70
2021/12/02 02:25:55;;;;;;;10.23;2.72;;;;;;;1.83;92.84;94710.53;5011660;28;20084;-72
2021/12/02 02:28:21;;;;;;;7.13;2.63;;;;;;;1.82;93.20;94722.13;4997662;28;20042;-73
2021/12/02 02:30:47;;;;;;;5.03;2.40;;;;;;;1.75;93.20;94713.56;4996565;28;20048;-70
2021/12/02 02:33:14;;;;;;;4.82;1.80;;;;;;;1.66;93.38;94702.59;4997357;28;20042;-71
2021/12/02 02:35:41;;;;;;;7.78;2.88;;;;;;;1.61;93.96;94706.97;4998534;28;20080;-72
2021/12/02 02:38:06;;;;;;;6.63;2.35;;;;;;;1.60;94.38;94702.72;4996009;28;20509;-73
2021/12/02 02:40:33;;;;;;;9.70;2.53;;;;;;;1.59;94.18;94704.56;4997637;28;20038;-70
2021/12/02 02:43:05;;;;;;;3.13;1.13;;;;;;;1.65;93.94;94701.00;4997594;28;20041;-74
2021/12/02 02:45:31;;;;;;;9.95;2.22;;;;;;;1.73;93.67;94713.00;4999102;28;20511;-70
2021/12/02 02:47:57;;;;;;;9.93;2.78;;;;;;;1.75;93.73;94694.31;4998956;28;20037;-72
2021/12/02 02:50:22;;;;;;;8.93;2.30;;;;;;;1.76;93.91;94696.69;4999307;28;20139;-75
2021/12/02 02:52:57;;;;;;;8.32;3.70;;;;;;;1.75;94.01;94699.56;4996192;28;20046;-71
2021/12/02 02:55:24;;;;;;;6.28;2.55;;;;;;;1.73;93.50;94706.94;4999539;28;20552;-73
2021/12/02 02:58:02;;;;;;;6.22;2.20;;;;;;;1.69;93.84;94706.59;4998612;28;20480;-71
2021/12/02 03:00:34;;;;;;;9.40;2.33;;;;;;;1.75;93.62;94716.19;4995239;28;20121;-71
2021/12/02 03:05:54;;;;;;;14.57;3.20;;;;;;;1.75;93.68;94710.91;5002456;28;20034;-74
2021/12/02 03:08:22;;;;;;;6.32;2.92;;;;;;;1.80;93.81;94715.50;4999571;28;20056;-71
2021/12/02 03:10:54;;;;;;;9.20;3.00;;;;;;;1.84;93.53;94703.44;4999189;28;20041;-71
2021/12/02 03:13:34;;;;;;;6.55;2.83;;;;;;;1.79;93.30;94706.78;5000397;28;20104;-70
2021/12/02 03:18:43;;;;;;;10.73;3.13;;;;;;;1.81;93.31;94696.00;5000130;28;20181;-72
2021/12/02 03:21:22;;;;;;;7.30;2.80;;;;;;;1.80;93.35;94697.84;4999841;28;20513;-71
2021/12/02 03:23:51;;;;;;;23.23;3.72;;;;;;;1.85;93.60;94694.47;5001185;28;20496;-72
2021/12/02 03:26:16;;;;;;;5.25;1.88;;;;;;;1.86;93.17;94698.72;5005127;28;20046;-70
2021/12/02 03:28:42;;;;;;;11.60;2.55;;;;;;;1.84;93.19;94704.22;5001433;28;20040;-70
2021/12/02 03:31:10;;;;;;;11.30;3.60;;;;;;;1.88;93.47;94691.38;5002847;28;20054;-70
2021/12/02 03:33:37;;;;;;;15.32;2.75;;;;;;;1.90;93.00;94700.66;5001789;28;20488;-70
2021/12/02 03:36:03;;;;;;;10.48;3.35;;;;;;;1.93;93.48;94708.09;4999993;28;20041;-71
2021/12/02 03:38:28;;;;;;;7.43;3.63;;;;;;;1.92;93.20;94698.56;5001681;28;20030;-70
2021/12/02 03:40:54;;;;;;;11.90;3.15;;;;;;;1.89;92.79;94706.97;5001189;28;20519;-70
2021/12/02 03:43:21;;;;;;;8.98;2.55;;;;;;;1.88;93.14;94692.19;5004961;28;20067;-73
2021/12/02 03:45:47;;;;;;;7.38;3.17;;;;;;;1.88;93.32;94688.75;5008122;28;20030;-69
2021/12/02 03:48:12;;;;;;;6.65;3.25;;;;;;;1.92;93.17;94700.41;5007550;28;20046;-69
2021/12/02 03:50:38;;;;;;;7.32;3.20;;;;;;;1.90;93.24;94687.47;5002323;28;20184;-71
2021/12/02 03:53:05;;;;;;;10.93;3.28;;;;;;;1.91;93.20;94696.97;5000967;28;20054;-73
2021/12/02 03:55:30;;;;;;;12.82;3.03;;;;;;;1.89;92.91;94688.50;5000731;28;20084;-71
2021/12/02 03:57:56;;;;;;;7.85;2.78;;;;;;;1.88;92.60;94704.56;5001482;28;20382;-74
2021/12/02 04:00:21;;;;;;;17.33;2.97;;;;;;;1.89;92.54;94690.34;4997786;28;20050;-73
2021/12/02 04:02:47;;;;;;;4.15;1.65;;;;;;;1.84;92.50;94683.13;5000584;28;20026;-70
2021/12/02 04:05:12;;;;;;;11.45;3.33;;;;;;;1.84;92.61;94691.03;4999975;28;20049;-70
2021/12/02 04:07:38;;;;;;;4.13;2.08;;;;;;;1.85;92.38;94689.19;5000441;28;20053;-72
2021/12/02 04:10:04;;;;;;;10.25;2.22;;;;;;;1.81;92.39;94678.34;5000780;28;20108;-70
2021/12/02 04:12:47;;;;;;;5.63;2.28;;;;;;;1.80;92.30;94686.50;5014462;28;20505;-72
2021/12/02 04:15:21;;;;;;;5.45;2.13;;;;;;;1.84;92.63;94683.13;5003166;28;20045;-70
2021/12/02 04:17:48;;;;;;;6.63;1.95;;;;;;;1.78;92.07;94678.78;4999047;28;20038;-72
2021/12/02 04:20:16;;;;;;;5.60;1.48;;;;;;;1.76;91.62;94680.06;5000499;28;20044;-70
2021/12/02 04:22:42;;;;;;;10.02;2.30;;;;;;;1.72;92.00;94682.41;5000518;28;20034;-75
2021/12/02 04:25:08;;;;;;;14.82;2.45;;;;;;;1.67;91.95;94687.56;5001680;28;20034;-70
2021/12/02 04:27:34;;;;;;;3.97;1.67;;;;;;;1.67;91.70;94690.19;5001605;28;20477;-72
2021/12/02 04:30:00;;;;;;;14.25;1.88;;;;;;;1.62;91.54;94682.19;4998196;28;20053;-69
2021/12/02 04:32:26;;;;;;;4.65;1.60;;;;;;;1.65;91.42;94687.81;5000673;28;20046;-72
2021/12/02 04:34:51;;;;;;;7.32;1.58;;;;;;;1.62;91.58;94692.72;4999264;28;20706;-73
2021/12/02 04:37:17;;;;;;;3.85;1.60;;;;;;;1.64;91.66;94690.69;4999703;28;20144;-71
2021/12/02 04:39:42;;;;;;;5.10;1.50;;;;;;;1.67;91.71;94696.28;4999846;28;20041;-71
2021/12/02 04:42:10;;;;;;;2.83;0.88;;;;;;;1.59;91.35;94690.56;5000593;28;20638;-70
2021/12/02 04:44:35;;;;;;;4.55;1.00;;;;;;;1.51;91.41;94693.59;4998691;28;20040;-70
2021/12/02 04:47:01;;;;;;;3.08;0.98;;;;;;;1.44;91.42;94691.09;5000695;28;20536;-72
2021/12/02 04:49:26;;;;;;;2.20;1.10;;;;;;;1.35;91.66;94688.03;5001209;28;20049;-71
2021/12/02 04:51:54;;;;;;;4.00;1.02;;;;;;;1.36;92.22;94689.63;5002893;28;20091;-72
2021/12/02 04:54:20;;;;;;;4.07;1.20;;;;;;;1.30;92.61;94689.75;5001130;28;20046;-70
2021/12/02 04:56:45;;;;;;;2.97;0.82;;;;;;;1.18;92.30;94704.81;5001468;28;20038;-71
2021/12/02 04:59:11;;;;;;;5.10;1.45;;;;;;;1.13;92.69;94702.84;5000281;28;20034;-71
2021/12/02 05:01:36;;;;;;;3.65;1.20;;;;;;;1.10;93.11;94708.59;5000548;28;20073;-70
2021/12/02 05:04:02;;;;;;;3.90;1.17;;;;;;;0.99;93.05;94701.50;5004039;28;20133;-72
2021/12/02 05:06:28;;;;;;;2.35;1.05;;;;;;;0.98;93.22;94702.53;4998599;28;20036;-70
2021/12/02 05:08:53;;;;;;;3.70;1.20;;;;;;;0.97;92.88;94708.81;4999310;28;20042;-73
2021/12/02 05:11:19;;;;;;;3.90;1.42;;;;;;;0.96;93.65;94718.56;5001139;28;20624;-71
2021/12/02 05:13:44;;;;;;;5.10;1.33;;;;;;;0.91;92.89;94725.53;4998606;28;20030;-71
2021/12/02 05:16:10;;;;;;;3.65;1.35;;;;;;;0.81;92.99;94720.88;4999444;28;20053;-71
2021/12/02 05:18:35;;;;;;;1.50;0.65;;;;;;;0.82;93.10;94718.00;4998569;28;20556;-70
2021/12/02 05:21:01;;;;;;;3.50;0.93;;;;;;;0.77;92.30;94725.78;4999072;28;20042;-70
2021/12/02 05:23:26;;;;;;;3.03;0.90;;;;;;;0.76;92.43;94718.91;4997735;28;20040;-70
2021/12/02 05:25:52;;;;;;;3.63;1.05;;;;;;;0.73;92.50;94726.47;4999788;28;20807;-70
2021/12/02 05:28:18;;;;;;;3.47;1.20;;;;;;;0.64;92.59;94717.31;5001785;28;20138;-71
2021/12/02 05:30:45;;;;;;;1.45;0.75;;;;;;;0.60;92.38;94718.78;4999824;28;20049;-70
2021/12/02 05:33:11;;;;;;;2.40;0.93;;;;;;;0.64;92.94;94720.75;4997925;28;20042;-72
2021/12/02 05:35:37;;;;;;;5.20;1.67;;;;;;;0.65;92.15;94721.56;4997037;28;20042;-71
2021/12/02 05:38:03;;;;;;;14.50;4.05;;;;;;;0.62;92.40;94712.25;5001770;28;20045;-72
2021/12/02 05:40:29;;;;;;;25.67;9.02;;;;;;;0.56;92.65;94715.81;4999380;28;20109;-73
2021/12/02 05:42:54;;;;;;;18.70;5.85;;;;;;;0.60;92.97;94721.44;4999319;28;20042;-71
2021/12/02 05:45:22;;;;;;;26.55;9.00;;;;;;;0.62;92.63;94717.53;5000312;28;20042;-71
2021/12/02 05:47:48;;;;;;;16.77;6.95;;;;;;;0.58;92.21;94710.34;4998470;28;20566;-71
2021/12/02 05:50:13;;;;;;;13.20;4.45;;;;;;;0.49;92.59;94715.13;4998481;28;20124;-74
2021/12/02 05:52:39;;;;;;;17.08;6.45;;;;;;;0.44;92.84;94702.66;4998177;28;20041;-72
2021/12/02 05:55:05;;;;;;;13.50;4.82;;;;;;;0.43;93.68;94714.22;4999076;28;20060;-71
2021/12/02 05:57:31;;;;;;;7.50;2.65;;;;;;;0.42;92.89;94706.53;4996232;28;20087;-71
2021/12/02 05:59:58;;;;;;;8.07;2.35;;;;;;;0.40;93.19;94701.50;4998599;28;20041;-71
2021/12/02 06:02:23;;;;;;;5.18;2.10;;;;;;;0.38;93.18;94703.56;4997992;28;20030;-73
2021/12/02 06:04:52;;;;;;;4.30;2.13;;;;;;;0.35;93.63;94705.84;4998822;28;20116;-73
2021/12/02 06:07:18;;;;;;;3.45;1.63;;;;;;;0.41;93.98;94718.09;4997757;28;20048;-70
2021/12/02 06:09:44;;;;;;;2.90;1.17;;;;;;;0.41;93.35;94726.81;4997680;28;20829;-72
2021/12/02 06:12:10;;;;;;;2.83;1.15;;;;;;;0.40;93.64;94706.78;4998825;28;20513;-71
2021/12/02 06:14:36;;;;;;;1.65;0.68;;;;;;;0.40;93.95;94714.66;4998922;28;20045;-73
2021/12/02 06:17:01;;;;;;;5.47;1.60;;;;;;;0.42;93.74;94725.75;4999893;28;20555;-70
2021/12/02 06:19:27;;;;;;;3.78;0.90;;;;;;;0.44;93.56;94720.28;4999685;28;20081;-72
2021/12/02 06:21:52;;;;;;;1.48;0.60;;;;;;;0.42;93.97;94719.69;4997993;28;20085;-74
2021/12/02 06:24:20;;;;;;;3.10;1.13;;;;;;;0.44;94.01;94723.69;5001354;28;20053;-74
2021/12/02 06:26:45;;;;;;;1.83;0.95;;;;;;;0.44;94.31;94720.28;4999189;28;20043;-71
2021/12/02 06:29:11;;;;;;;3.10;1.20;;;;;;;0.45;94.52;94719.22;4999811;28;20064;-74
2021/12/02 06:31:36;;;;;;;1.77;0.85;;;;;;;0.47;94.85;94723.25;4999408;28;20057;-71
2021/12/02 06:34:02;;;;;;;5.75;1.58;;;;;;;0.47;94.54;94736.44;4997106;28;20120;-70
2021/12/02 06:36:28;;;;;;;4.40;1.35;;;;;;;0.48;94.71;94742.50;4999323;28;20040;-71
2021/12/02 06:38:53;;;;;;;5.18;1.90;;;;;;;0.51;94.83;94732.28;5003159;28;20046;-70
2021/12/02 06:41:19;;;;;;;4.10;1.60;;;;;;;0.54;94.96;94747.66;4996203;28;20069;-71
2021/12/02 06:43:45;;;;;;;5.03;1.70;;;;;;;0.53;94.50;94734.69;5000042;28;20034;-73
2021/12/02 06:46:11;;;;;;;4.63;1.95;;;;;;;0.54;94.23;94739.75;4999296;28;20077;-71
2021/12/02 06:48:36;;;;;;;6.65;1.65;;;;;;;0.54;94.54;94749.44;5000260;28;20166;-75
2021/12/02 06:51:02;;;;;;;3.63;1.40;;;;;;;0.55;94.39;94735.28;4999139;28;20049;-71
2021/12/02 06:53:27;;;;;;;7.50;2.17;;;;;;;0.60;94.69;94745.13;4998821;28;20062;-71
2021/12/02 06:55:53;;;;;;;5.95;2.22;;;;;;;0.63;94.94;94745.47;4998143;28;20034;-73
2021/12/02 06:58:18;;;;;;;2.80;1.35;;;;;;;0.69;94.69;94755.06;4999046;28;20099;-72
2021/12/02 07:00:44;;;;;;;9.88;2.33;;;;;;;0.70;94.59;94746.19;5000736;28;20042;-72
2021/12/02 07:03:10;;;;;;;8.45;2.88;;;;;;;0.75;94.21;94751.53;5000450;28;20054;-70
2021/12/02 07:05:35;;;;;;;4.28;2.47;;;;;;;0.78;94.82;94747.66;5000014;28;20049;-71
2021/12/02 07:08:02;;;;;;;6.50;3.17;;;;;;;0.78;94.13;94750.31;4998734;28;20038;-73
2021/12/02 07:10:30;;;;;;;8.68;2.90;;;;;;;0.82;94.38;94754.06;4999214;28;20497;-72
2021/12/02 07:12:56;;;;;;;5.53;2.20;;;;;;;0.79;94.07;94755.34;4997375;28;20053;-71
2021/12/02 07:15:39;;;;;;;5.22;2.30;;;;;;;0.81;93.30;94765.63;4998103;28;20043;-70
2021/12/02 07:18:12;;;;;;;5.50;1.98;;;;;;;0.80;93.07;94756.13;4997385;28;20117;-71
2021/12/02 07:20:39;;;;;;;4.50;2.35;;;;;;;0.82;93.92;94756.69;4997222;28;20038;-70
2021/12/02 07:23:05;;;;;;;7.68;2.67;;;;;;;0.81;93.93;94755.09;4996246;28;20038;-70
2021/12/02 07:25:32;;;;;;;6.53;2.20;;;;;;;0.78;93.93;94764.25;4995651;28;20117;-70
2021/12/02 07:27:57;;;;;;;7.80;2.70;;;;;;;0.80;94.08;94764.84;5001642;28;20043;-71
2021/12/02 07:30:23;;;;;;;7.03;2.88;;;;;;;0.78;93.94;94764.25;4994736;28;20045;-73
2021/12/02 07:32:54;;;;;;;7.30;2.72;;;;;;;0.84;94.47;94773.06;4998635;28;20045;-70
2021/12/02 07:35:20;;;;;;;5.72;3.35;;;;;;;0.84;94.45;94779.13;5001011;28;20045;-73
2021/12/02 07:37:48;;;;;;;3.60;2.20;;;;;;;0.80;93.30;94774.56;5001053;28;20037;-71
2021/12/02 07:40:15;;;;;;;6.88;2.20;;;;;;;0.71;93.34;94771.47;5003135;28;20046;-70
2021/12/02 07:42:41;;;;;;;14.57;3.00;;;;;;;0.65;93.26;94793.44;4999951;28;20053;-70
2021/12/02 07:45:08;;;;;;;4.60;2.38;;;;;;;0.54;92.88;94783.66;4998354;28;20709;-70
2021/12/02 07:47:35;;;;;;;2.88;0.88;;;;;;;0.45;92.64;94792.94;4997509;28;20045;-70
2021/12/02 07:50:01;;;;;;;3.75;0.43;;;;;;;0.36;92.99;94791.66;4998355;28;20451;-71
2021/12/02 07:52:29;;;;;;;2.60;1.10;;;;;;;0.30;93.23;94798.59;5000142;28;20117;-73
2021/12/02 07:54:57;;;;;;;2.47;1.17;;;;;;;0.27;93.20;94799.88;4997566;28;20038;-70
2021/12/02 07:57:24;;;;;;;4.63;1.50;;;;;;;0.34;92.82;94804.25;5006020;28;20035;-70
2021/12/02 07:59:50;;;;;;;3.55;1.45;;;;;;;0.36;93.29;94802.97;5007335;28;20038;-73
2021/12/02 08:02:17;;;;;;;3.00;1.30;;;;;;;0.35;93.22;94811.91;5007766;28;20065;-72
2021/12/02 08:04:42;;;;;;;3.88;1.60;;;;;;;0.35;92.74;94811.91;5002073;28;20565;-70
2021/12/02 08:07:08;;;;;;;3.92;2.08;;;;;;;0.36;92.97;94805.63;4998949;28;20046;-71
2021/12/02 08:09:34;;;;;;;5.28;2.60;;;;;;;0.31;93.78;94809.94;5002486;28;20066;-70
2021/12/02 08:12:00;;;;;;;3.80;2.20;;;;;;;0.40;93.68;94813.88;5002319;28;20048;-74
2021/12/02 08:14:26;;;;;;;6.05;2.35;;;;;;;0.40;93.38;94814.69;5002446;28;20081;-70
2021/12/02 08:16:52;;;;;;;4.50;2.05;;;;;;;0.39;93.47;94826.22;5001990;28;21493;-70
2021/12/02 08:19:19;;;;;;;3.70;1.40;;;;;;;0.30;93.81;94829.38;4999892;28;20041;-71
2021/12/02 08:21:45;;;;;;;4.18;2.38;;;;;;;0.31;93.83;94834.41;5000660;28;20034;-71
2021/12/02 08:24:10;;;;;;;2.25;1.33;;;;;;;0.33;93.58;94837.66;5001703;28;20042;-74
2021/12/02 08:26:36;;;;;;;7.13;2.53;;;;;;;0.33;94.13;94852.63;4999405;28;20354;-72
2021/12/02 08:29:03;;;;;;;4.63;2.55;;;;;;;0.37;93.99;94848.50;5001114;28;20100;-71
2021/12/02 08:31:29;;;;;;;8.18;2.58;;;;;;;0.45;93.36;94845.56;4997760;28;20555;-70
2021/12/02 08:33:54;;;;;;;7.43;2.65;;;;;;;0.53;93.19;94855.78;5001205;28;20038;-70
2021/12/02 08:36:23;;;;;;;6.47;2.40;;;;;;;0.52;92.73;94854.97;5000093;28;20475;-71
2021/12/02 08:38:49;;;;;;;4.68;1.63;;;;;;;0.62;92.02;94850.97;5000681;28;20042;-70
2021/12/02 08:41:19;;;;;;;2.65;1.38;;;;;;;0.75;92.43;94859.50;5000910;28;20077;-70
2021/12/02 08:43:47;;;;;;;7.35;2.67;;;;;;;0.70;91.92;94861.19;4998990;28;20041;-70
2021/12/02 08:46:15;;;;;;;3.92;1.75;;;;;;;0.62;91.33;94858.88;5000667;28;20046;-70
2021/12/02 08:48:40;;;;;;;2.08;1.35;;;;;;;0.61;91.86;94858.09;5000534;28;20053;-71
2021/12/02 08:51:06;;;;;;;3.97;2.33;;;;;;;0.64;91.85;94864.75;4998454;28;20045;-73
2021/12/02 08:53:32;;;;;;;4.80;1.70;;;;;;;0.61;91.63;94855.44;4999605;28;20120;-70
2021/12/02 08:55:59;;;;;;;5.00;2.60;;;;;;;0.62;91.70;94869.41;5002832;28;20069;-70
2021/12/02 08:58:25;;;;;;;5.35;2.25;;;;;;;0.59;91.63;94861.97;4998145;28;20053;-71
2021/12/02 09:00:50;;;;;;;7.15;2.53;;;;;;;0.53;91.60;94866.31;4999826;28;20049;-72
2021/12/02 09:03:16;;;;;;;6.03;1.73;;;;;;;0.52;91.39;94869.97;5000060;28;20123;-72
2021/12/02 09:05:43;;;;;;;8.68;2.80;;;;;;;0.51;91.55;94865.72;4999699;28;20681;-71
2021/12/02 09:08:09;;;;;;;4.55;1.60;;;;;;;0.55;91.83;94872.16;4999452;28;20050;-72
2021/12/02 09:10:36;;;;;;;2.72;1.83;;;;;;;0.53;91.43;94856.56;4998999;28;20033;-72
2021/12/02 09:13:07;;;;;;;7.05;2.85;;;;;;;0.63;91.00;94863.16;4999180;28;20392;-73
2021/12/02 09:15:37;;;;;;;2.20;1.27;;;;;;;0.73;90.90;94869.47;5000383;28;20037;-72
2021/12/02 09:18:03;;;;;;;9.25;2.50;;;;;;;0.76;90.71;94879.53;4997660;28;20758;-71
2021/12/02 09:20:28;;;;;;;6.82;2.78;;;;;;;0.69;90.23;94885.91;4997755;28;20045;-71
2021/12/02 09:22:54;;;;;;;7.22;2.97;;;;;;;0.86;90.58;94878.16;5001549;28;20536;-72
2021/12/02 09:25:20;;;;;;;4.32;1.38;;;;;;;0.98;89.80;94889.53;5002562;28;20134;-71
2021/12/02 09:27:46;;;;;;;8.40;2.60;;;;;;;0.95;89.08;94884.75;5005098;28;20048;-72
2021/12/02 09:30:13;;;;;;;10.65;2.45;;;;;;;0.99;89.60;94893.78;5000214;28;20065;-72
2021/12/02 09:32:39;;;;;;;9.18;2.80;;;;;;;1.01;90.01;94889.91;5000323;28;20061;-72
2021/12/02 09:35:07;;;;;;;6.68;2.45;;;;;;;0.97;89.72;94896.66;5000506;28;20100;-71
2021/12/02 09:37:32;;;;;;;6.30;3.53;;;;;;;1.02;90.00;94895.97;4998100;28;20030;-72
2021/12/02 09:39:58;;;;;;;9.18;2.90;;;;;;;1.02;89.79;94906.50;4997959;28;20065;-71
2021/12/02 09:42:25;;;;;;;7.90;3.03;;;;;;;0.93;90.21;94894.69;4997816;28;20073;-72
2021/12/02 09:44:55;;;;;;;4.20;2.55;;;;;;;1.02;90.29;94890.72;4998409;28;20041;-71
2021/12/02 09:47:22;;;;;;;7.75;2.88;;;;;;;1.00;90.17;94898.81;5002676;28;20052;-70
2021/12/02 09:49:48;;;;;;;5.18;2.75;;;;;;;0.94;90.20;94920.00;5000499;28;20046;-71
2021/12/02 09:52:15;;;;;;;0.73;0.43;;;;;;;0.76;90.53;94919.03;4998935;28;20149;-70
2021/12/02 09:54:52;;;;;;;3.15;0.95;;;;;;;0.58;90.22;94920.91;4999118;28;20041;-71
2021/12/02 09:57:22;;;;;;;4.97;0.90;;;;;;;0.45;90.45;94927.94;5000117;28;20447;-70
2021/12/02 09:59:50;;;;;;;3.85;1.98;;;;;;;0.46;91.30;94928.75;4998897;28;20535;-70
2021/12/02 10:02:20;;;;;;;4.10;2.05;;;;;;;0.53;91.32;94930.28;4997077;28;20053;-70
2021/12/02 10:05:00;;;;;;;4.35;2.25;;;;;;;0.54;91.10;94921.38;4997182;28;20054;-73
2021/12/02 10:10:28;;;;;;;6.70;2.80;;;;;;;0.89;90.01;94933.03;4996463;28;20038;-70
2021/12/02 10:16:01;;;;;;;8.50;2.90;;;;;;;0.69;89.89;94926.22;4995258;28;20085;-72
2021/12/02 10:18:35;;;;;;;3.75;2.20;;;;;;;0.62;90.07;94928.13;4995964;28;20316;-72
2021/12/02 10:21:35;;;;;;;3.45;2.00;;;;;;;0.58;89.98;94934.88;4995285;28;20117;-71
2021/12/02 10:24:26;;;;;;;3.88;2.20;;;;;;;0.47;90.35;94927.75;4997526;28;20547;-71
2021/12/02 10:26:55;;;;;;;6.15;2.85;;;;;;;0.51;90.49;94934.16;4988725;28;20129;-74
2021/12/02 10:29:24;;;;;;;4.93;2.03;;;;;;;0.53;89.76;94927.66;5003273;28;20060;-72
2021/12/02 10:32:17;;;;;;;2.28;1.27;;;;;;;0.58;89.01;94932.25;4997050;28;20050;-74
2021/12/02 10:34:49;;;;;;;5.45;2.05;;;;;;;0.74;89.30;94925.56;5000012;28;20038;-74
2021/12/02 10:37:19;;;;;;;5.38;2.05;;;;;;;0.81;88.16;94924.44;5000371;28;20041;-71
2021/12/02 10:40:15;;;;;;;5.32;2.45;;;;;;;0.91;88.53;94928.34;4997534;28;20045;-70
2021/12/02 10:42:45;;;;;;;4.68;2.30;;;;;;;0.96;87.93;94931.91;4997272;28;20131;-71
2021/12/02 10:45:29;;;;;;;4.65;2.15;;;;;;;1.08;87.62;94926.66;4997155;28;20054;-70
2021/12/02 10:47:58;;;;;;;5.35;2.70;;;;;;;1.05;87.57;94920.03;4997751;28;20037;-70
2021/12/02 10:50:26;;;;;;;5.40;2.55;;;;;;;1.06;87.85;94928.72;4998509;28;20038;-73
2021/12/02 10:52:52;;;;;;;4.13;2.00;;;;;;;1.03;87.36;94923.94;4996559;28;20037;-71
2021/12/02 10:55:22;;;;;;;5.80;2.30;;;;;;;0.95;87.70;94930.31;4998313;28;20037;-74
2021/12/02 10:57:54;;;;;;;8.05;2.38;;;;;;;0.91;88.41;94941.53;4995756;28;20073;-71
2021/12/02 11:00:22;;;;;;;4.85;2.60;;;;;;;0.88;88.29;94936.72;4995945;28;20034;-73
2021/12/02 11:02:52;;;;;;;4.32;2.50;;;;;;;0.92;88.50;94935.22;4999711;28;20034;-71
2021/12/02 11:05:28;;;;;;;3.92;2.28;;;;;;;0.86;88.43;94938.75;4996140;28;20073;-72
2021/12/02 11:08:04;;;;;;;1.55;0.90;;;;;;;0.78;88.65;94935.44;4996793;28;20042;-72
2021/12/02 11:10:50;;;;;;;1.98;1.23;;;;;;;0.58;88.74;94934.88;4998720;28;20057;-72
2021/12/02 11:13:23;;;;;;;3.03;2.03;;;;;;;0.55;88.78;94932.72;4996580;28;20468;-72
2021/12/02 11:15:49;;;;;;;3.05;1.95;;;;;;;0.64;88.29;94927.94;4997207;28;20069;-72
2021/12/02 11:18:16;;;;;;;7.95;2.67;;;;;;;0.61;88.97;94926.53;5000229;28;20104;-72
2021/12/02 11:20:46;;;;;;;4.68;3.10;;;;;;;0.69;89.00;94939.38;4997527;28;20065;-71
2021/12/02 11:23:17;;;;;;;4.60;2.50;;;;;;;0.70;88.96;94941.00;4996116;28;20053;-71
2021/12/02 11:26:06;;;;;;;4.90;3.27;;;;;;;0.68;88.87;94952.78;4998282;28;20065;-72
2021/12/02 11:28:35;;;;;;;5.72;1.75;;;;;;;0.61;88.32;94937.06;4997864;28;20089;-71
2021/12/02 11:31:07;;;;;;;3.45;2.22;;;;;;;0.67;88.29;94938.00;4996510;28;20460;-70
2021/12/02 11:33:39;;;;;;;5.85;2.42;;;;;;;0.66;87.88;94939.03;4996832;28;20061;-72
2021/12/02 11:36:18;;;;;;;3.92;2.05;;;;;;;0.71;88.20;94937.34;5000293;28;20041;-71
2021/12/02 11:38:44;;;;;;;5.18;2.42;;;;;;;0.71;88.59;94937.34;4997670;28;20038;-72
2021/12/02 11:41:10;;;;;;;4.45;2.83;;;;;;;0.69;88.36;94941.22;5000860;28;20064;-71
2021/12/02 11:43:38;;;;;;;4.63;2.88;;;;;;;0.72;89.01;94946.03;5002453;28;20038;-73
2021/12/02 11:46:06;;;;;;;4.43;2.58;;;;;;;0.69;87.97;94947.28;5001006;28;20116;-71
2021/12/02 11:48:37;;;;;;;3.78;2.47;;;;;;;0.63;88.27;94945.56;5001115;28;20048;-69
2021/12/02 11:51:07;;;;;;;4.88;3.05;;;;;;;0.72;88.65;94946.84;4999215;28;20121;-71
2021/12/02 11:53:33;;;;;;;5.88;3.10;;;;;;;0.82;88.88;94954.19;5033068;28;20048;-68
2021/12/02 11:56:03;;;;;;;4.75;2.60;;;;;;;1.18;87.88;94945.38;5000372;28;20308;-68
2021/12/02 11:58:29;;;;;;;3.50;2.30;;;;;;;1.63;85.11;94940.38;5000564;28;20516;-68
2021/12/02 12:00:55;;;;;;;2.53;1.63;;;;;;;5.59;71.26;94944.81;4997023;28;20050;-69